Time;durP1;ratioP1;P1;durP2;ratioP2;P2;SDS_P1;SDS_P2;PMS_P1;PMS_P2;Temp;Humidity;BMP_temperature;BMP_pressure;BME280_temperature;BME280_humidity;BME280_pressure;Samples;Min_cycle;Max_cycle;Signal;HPM_P1;HPM_P2
2021/03/15 00:01:09;;;;;;;86.60;48.97;;;17.80;44.70;;;;;;5033585;28;20029;-56
2021/03/15 00:03:35;;;;;;;82.53;50.00;;;17.80;44.70;;;;;;5033540;28;20030;-54
2021/03/15 00:06:01;;;;;;;94.00;48.38;;;17.80;44.80;;;;;;5033245;28;20034;-54
2021/03/15 00:08:27;;;;;;;83.18;46.00;;;17.80;45.20;;;;;;5033540;28;20108;-56
2021/03/15 00:10:54;;;;;;;92.63;50.92;;;17.70;45.10;;;;;;5033300;28;20465;-57
2021/03/15 00:13:20;;;;;;;79.75;44.13;;;17.70;45.10;;;;;;5033544;28;20060;-55
2021/03/15 00:15:47;;;;;;;85.85;45.05;;;17.70;44.90;;;;;;5033071;28;20025;-55
2021/03/15 00:18:13;;;;;;;70.95;40.53;;;17.60;44.60;;;;;;5033158;28;20171;-55
2021/03/15 00:20:39;;;;;;;75.57;41.13;;;17.60;44.60;;;;;;5033272;28;20033;-56
2021/03/15 00:23:05;;;;;;;71.07;40.80;;;17.60;44.60;;;;;;5033237;28;20025;-57
2021/03/15 00:25:31;;;;;;;77.47;42.35;;;17.70;44.30;;;;;;5033342;28;20029;-56
2021/03/15 00:27:56;;;;;;;70.05;41.92;;;17.70;44.20;;;;;;5033603;28;20127;-54
2021/03/15 00:30:22;;;;;;;69.75;40.30;;;17.80;44.20;;;;;;5033076;28;20056;-56
2021/03/15 00:32:49;;;;;;;79.85;42.60;;;17.70;44.20;;;;;;5033044;28;20057;-56
2021/03/15 00:35:17;;;;;;;71.45;38.83;;;17.70;44.30;;;;;;5032981;28;20033;-54
2021/03/15 00:37:44;;;;;;;62.50;35.92;;;17.70;44.50;;;;;;5033059;28;20091;-57
2021/03/15 00:40:20;;;;;;;66.30;36.50;;;17.70;44.40;;;;;;5033212;28;20025;-54
2021/03/15 00:42:47;;;;;;;74.40;38.00;;;17.70;44.30;;;;;;5032978;28;20098;-57
2021/03/15 00:45:14;;;;;;;65.85;35.67;;;17.60;44.30;;;;;;5032871;28;20469;-56
2021/03/15 00:47:40;;;;;;;62.70;34.65;;;17.60;44.30;;;;;;5032854;28;20376;-55
2021/03/15 00:50:18;;;;;;;65.10;36.88;;;17.60;44.40;;;;;;5032275;28;20112;-56
2021/03/15 00:52:43;;;;;;;59.63;33.80;;;17.50;44.60;;;;;;5031625;28;20408;-56
2021/03/15 00:55:09;;;;;;;58.03;31.15;;;17.50;44.60;;;;;;5032864;28;20026;-56
2021/03/15 00:57:35;;;;;;;58.95;32.63;;;17.40;44.90;;;;;;5032745;28;20086;-55
2021/03/15 01:00:01;;;;;;;54.13;30.02;;;17.40;44.90;;;;;;5032753;28;20028;-55
2021/03/15 01:02:27;;;;;;;62.38;33.47;;;17.40;44.80;;;;;;5032504;28;20033;-56
2021/03/15 01:04:52;;;;;;;64.93;33.25;;;17.40;45.20;;;;;;5032906;28;20029;-56
2021/03/15 01:07:19;;;;;;;54.97;31.65;;;17.30;45.50;;;;;;5032836;28;20028;-58
2021/03/15 01:09:44;;;;;;;58.78;33.33;;;17.30;45.30;;;;;;5032722;28;20030;-56
2021/03/15 01:12:10;;;;;;;56.70;30.25;;;17.30;45.50;;;;;;5032681;28;20022;-54
2021/03/15 01:14:36;;;;;;;55.85;30.33;;;17.30;45.60;;;;;;5032548;28;20029;-57
2021/03/15 01:17:02;;;;;;;49.20;27.75;;;17.30;45.50;;;;;;5032402;28;20032;-55
2021/03/15 01:19:27;;;;;;;52.85;28.27;;;17.30;45.50;;;;;;5032608;28;20041;-62
2021/03/15 01:21:53;;;;;;;49.75;27.95;;;17.30;45.40;;;;;;5032766;28;20095;-56
2021/03/15 01:24:19;;;;;;;52.50;30.00;;;17.30;45.20;;;;;;5032429;28;20033;-53
2021/03/15 01:26:45;;;;;;;50.15;29.17;;;17.40;45.10;;;;;;5032359;28;20033;-54
2021/03/15 01:29:11;;;;;;;50.08;27.90;;;17.40;45.00;;;;;;5032463;28;20461;-54
2021/03/15 01:31:36;;;;;;;53.20;27.58;;;17.40;44.90;;;;;;5032554;28;20469;-62
2021/03/15 01:34:02;;;;;;;47.92;26.42;;;17.50;44.90;;;;;;5032610;28;20108;-53
2021/03/15 01:36:28;;;;;;;46.63;25.20;;;17.50;45.00;;;;;;5032414;28;20060;-54
2021/03/15 01:38:53;;;;;;;48.70;26.40;;;17.50;45.10;;;;;;5032366;28;20504;-56
2021/03/15 01:41:19;;;;;;;45.90;24.55;;;17.40;45.10;;;;;;5032810;28;20532;-56
2021/03/15 01:43:45;;;;;;;47.10;23.77;;;17.40;45.30;;;;;;5033209;28;20057;-55
2021/03/15 01:46:10;;;;;;;44.70;23.83;;;17.30;45.30;;;;;;5033339;28;20083;-55
2021/03/15 01:48:36;;;;;;;41.22;24.15;;;17.30;45.30;;;;;;5033257;28;20068;-55
2021/03/15 01:51:02;;;;;;;45.72;24.80;;;17.30;45.40;;;;;;5033241;28;20025;-55
2021/03/15 01:53:28;;;;;;;41.22;23.00;;;17.20;45.50;;;;;;5033056;28;20049;-56
2021/03/15 01:55:54;;;;;;;39.20;22.88;;;17.20;45.60;;;;;;5033134;28;20026;-56
2021/03/15 01:58:19;;;;;;;40.58;23.30;;;17.20;45.50;;;;;;5033028;28;20034;-56
2021/03/15 02:00:46;;;;;;;40.15;22.42;;;17.20;45.70;;;;;;5034233;28;20030;-57
2021/03/15 02:03:12;;;;;;;40.85;21.85;;;17.20;45.70;;;;;;5036804;28;20021;-56
2021/03/15 02:05:42;;;;;;;41.45;22.13;;;17.20;45.70;;;;;;5037149;28;20083;-56
2021/03/15 02:08:08;;;;;;;38.63;22.13;;;17.10;45.60;;;;;;5036652;28;20037;-56
2021/03/15 02:10:35;;;;;;;39.72;21.00;;;17.10;45.90;;;;;;5036630;28;20036;-56
2021/03/15 02:13:14;;;;;;;38.10;21.75;;;17.10;45.60;;;;;;5036586;28;20032;-56
2021/03/15 02:16:00;;;;;;;36.65;19.30;;;17.10;45.80;;;;;;5036571;28;20116;-56
2021/03/15 02:18:27;;;;;;;39.05;21.92;;;17.10;45.80;;;;;;5036576;28;20064;-55
2021/03/15 02:21:20;;;;;;;37.20;19.33;;;17.20;45.80;;;;;;5036372;28;20036;-56
2021/03/15 02:24:21;;;;;;;36.50;20.05;;;17.20;45.70;;;;;;5036410;28;20030;-56
2021/03/15 02:27:18;;;;;;;32.58;18.42;;;17.40;45.60;;;;;;5022828;28;20044;-53
2021/03/15 02:30:21;;;;;;;35.70;18.65;;;17.70;45.00;;;;;;5036027;28;20029;-57
2021/03/15 02:33:18;;;;;;;32.75;16.55;;;17.90;44.40;;;;;;5036100;28;20029;-56
2021/03/15 02:35:46;;;;;;;30.85;16.48;;;18.10;44.00;;;;;;5036250;28;20092;-57
2021/03/15 02:38:13;;;;;;;30.55;17.08;;;18.20;43.70;;;;;;5036330;28;20052;-52
2021/03/15 02:40:53;;;;;;;31.92;18.52;;;18.20;44.10;;;;;;5036204;28;20025;-55
2021/03/15 02:43:34;;;;;;;35.85;17.23;;;18.20;44.10;;;;;;5036436;28;20025;-59
2021/03/15 02:46:03;;;;;;;30.70;16.67;;;18.20;44.30;;;;;;5036013;28;20033;-53
2021/03/15 02:48:32;;;;;;;29.25;16.40;;;18.10;44.30;;;;;;5035832;28;20524;-56
2021/03/15 02:50:59;;;;;;;27.05;16.17;;;18.10;44.40;;;;;;5035811;28;20037;-58
2021/03/15 02:53:26;;;;;;;27.73;16.40;;;18.00;44.40;;;;;;5035602;28;20050;-57
2021/03/15 02:55:55;;;;;;;25.90;15.65;;;18.00;44.30;;;;;;5035642;28;20029;-57
2021/03/15 02:58:22;;;;;;;27.33;15.13;;;18.00;44.40;;;;;;5035723;28;20080;-56
2021/03/15 03:00:49;;;;;;;28.27;15.68;;;18.00;44.50;;;;;;5035603;28;20029;-57
2021/03/15 03:03:20;;;;;;;31.02;14.73;;;18.00;44.50;;;;;;5035923;28;20079;-57
2021/03/15 03:05:46;;;;;;;;;;;18.00;44.60;;;;;;5035897;28;20029;-58
2021/03/15 03:08:13;;;;;;;27.88;14.90;;;17.90;44.70;;;;;;5035466;28;19905;-56
2021/03/15 03:10:39;;;;;;;24.80;14.02;;;17.90;44.60;;;;;;5035586;28;20021;-52
2021/03/15 03:13:06;;;;;;;26.42;14.88;;;17.90;44.60;;;;;;5034749;28;20040;-58
2021/03/15 03:15:33;;;;;;;23.98;13.15;;;17.90;44.80;;;;;;5035385;28;20024;-57
2021/03/15 03:18:03;;;;;;;24.38;12.60;;;17.80;44.80;;;;;;5035115;28;20065;-58
2021/03/15 03:20:29;;;;;;;24.80;13.10;;;17.80;44.80;;;;;;5035540;28;20453;-58
2021/03/15 03:22:59;;;;;;;21.05;12.93;;;17.80;44.90;;;;;;5035289;28;20029;-55
2021/03/15 03:25:26;;;;;;;23.65;12.65;;;17.80;44.90;;;;;;5035228;28;20064;-57
2021/03/15 03:27:54;;;;;;;22.15;12.35;;;17.80;44.90;;;;;;5035138;28;20037;-55
2021/03/15 03:30:30;;;;;;;22.10;12.43;;;17.80;45.00;;;;;;5035126;28;20068;-57
2021/03/15 03:33:02;;;;;;;23.20;13.15;;;17.80;44.90;;;;;;5034983;28;20485;-58
2021/03/15 03:35:28;;;;;;;21.23;12.27;;;17.80;44.80;;;;;;5035043;28;20032;-55
2021/03/15 03:37:55;;;;;;;20.23;12.90;;;17.90;44.80;;;;;;5034773;28;20389;-57
2021/03/15 03:40:21;;;;;;;19.23;10.98;;;17.90;44.80;;;;;;5034922;28;20026;-58
2021/03/15 03:42:47;;;;;;;19.98;11.60;;;17.90;44.80;;;;;;5034896;28;20033;-56
2021/03/15 03:45:14;;;;;;;19.85;10.93;;;17.90;44.70;;;;;;5034773;28;20033;-56
2021/03/15 03:47:41;;;;;;;23.17;11.52;;;17.90;44.70;;;;;;5034752;28;20026;-57
2021/03/15 03:50:11;;;;;;;24.08;11.77;;;17.80;44.80;;;;;;5034581;28;20108;-57
2021/03/15 03:52:39;;;;;;;18.85;11.02;;;17.80;45.00;;;;;;5034404;28;20501;-58
2021/03/15 03:55:08;;;;;;;20.90;10.70;;;17.70;45.50;;;;;;5034299;28;20040;-58
2021/03/15 03:57:36;;;;;;;18.65;11.43;;;17.60;45.30;;;;;;5034518;28;20025;-57
2021/03/15 04:00:11;;;;;;;20.05;10.25;;;17.60;45.30;;;;;;5034443;28;20076;-56
2021/03/15 04:02:53;;;;;;;21.35;11.57;;;17.60;45.30;;;;;;5034562;28;20087;-58
2021/03/15 04:05:26;;;;;;;19.42;9.93;;;17.60;45.50;;;;;;5034488;28;20029;-57
2021/03/15 04:07:59;;;;;;;18.17;9.75;;;17.50;45.50;;;;;;5034516;28;20056;-56
2021/03/15 04:10:29;;;;;;;15.98;9.50;;;17.50;45.60;;;;;;5034645;28;20029;-58
2021/03/15 04:13:07;;;;;;;18.30;10.82;;;17.50;45.70;;;;;;5034367;28;20025;-58
2021/03/15 04:15:33;;;;;;;17.50;9.82;;;17.40;45.60;;;;;;5034421;28;20095;-58
2021/03/15 04:18:02;;;;;;;16.38;9.50;;;17.40;45.60;;;;;;5033978;28;20124;-54
2021/03/15 04:20:33;;;;;;;17.50;9.23;;;17.40;45.80;;;;;;5034436;28;20109;-56
2021/03/15 04:23:03;;;;;;;15.55;8.70;;;17.40;46.00;;;;;;5034319;28;20022;-57
2021/03/15 04:25:32;;;;;;;18.48;10.45;;;17.40;45.90;;;;;;5033511;28;20061;-56
2021/03/15 04:27:59;;;;;;;19.67;9.00;;;17.40;45.80;;;;;;5034063;28;20041;-55
2021/03/15 04:30:26;;;;;;;17.45;9.18;;;17.40;45.90;;;;;;5033773;28;20060;-58
2021/03/15 04:32:53;;;;;;;15.77;9.05;;;17.50;45.50;;;;;;5034235;28;20104;-56
2021/03/15 04:35:26;;;;;;;16.83;8.85;;;17.50;45.50;;;;;;5034033;28;20026;-58
2021/03/15 04:37:53;;;;;;;13.63;7.78;;;17.50;45.50;;;;;;5033900;28;20087;-56
2021/03/15 04:40:23;;;;;;;15.30;8.85;;;17.50;45.40;;;;;;5034034;28;20461;-59
2021/03/15 04:42:50;;;;;;;17.38;8.77;;;17.50;45.50;;;;;;5033885;28;20376;-56
2021/03/15 04:45:17;;;;;;;16.75;8.73;;;17.50;45.40;;;;;;5033628;28;20037;-55
2021/03/15 04:47:44;;;;;;;12.80;7.55;;;17.50;45.40;;;;;;5033676;28;20033;-58
2021/03/15 04:50:12;;;;;;;14.95;7.80;;;17.40;45.30;;;;;;5032842;28;20377;-57
2021/03/15 04:52:39;;;;;;;14.23;7.40;;;17.40;45.30;;;;;;5033580;28;20057;-53
2021/03/15 04:55:09;;;;;;;14.63;7.60;;;17.40;45.40;;;;;;5033593;28;20025;-57
2021/03/15 04:57:36;;;;;;;;;;;17.30;45.50;;;;;;5033978;28;20450;-53
2021/03/15 05:00:06;;;;;;;13.38;7.20;;;17.30;45.70;;;;;;5033743;28;19982;-58
2021/03/15 05:02:33;;;;;;;14.00;6.65;;;17.20;45.60;;;;;;5033825;28;20026;-58
2021/03/15 05:05:00;;;;;;;14.00;7.53;;;17.30;45.80;;;;;;5033430;28;20033;-55
2021/03/15 05:07:28;;;;;;;12.48;6.32;;;17.20;46.00;;;;;;5033375;28;20030;-53
2021/03/15 05:09:55;;;;;;;11.07;6.35;;;17.30;46.10;;;;;;5033586;28;20401;-56
2021/03/15 05:12:22;;;;;;;14.27;7.18;;;17.30;46.00;;;;;;5033576;28;20087;-55
2021/03/15 05:14:49;;;;;;;13.95;6.57;;;17.40;46.00;;;;;;5033586;28;20033;-55
2021/03/15 05:17:15;;;;;;;11.95;5.88;;;17.50;45.90;;;;;;5033585;28;20033;-57
2021/03/15 05:19:42;;;;;;;12.45;6.07;;;17.60;45.70;;;;;;5033266;28;20030;-56
2021/03/15 05:22:09;;;;;;;12.35;6.78;;;17.70;45.40;;;;;;5033345;28;20025;-57
2021/03/15 05:24:36;;;;;;;11.85;5.43;;;17.90;45.20;;;;;;5033537;28;20057;-54
2021/03/15 05:27:02;;;;;;;11.55;5.78;;;18.00;44.90;;;;;;5033306;28;20466;-58
2021/03/15 05:29:30;;;;;;;12.73;6.75;;;18.10;44.60;;;;;;5033439;28;20044;-59
2021/03/15 05:31:57;;;;;;;15.38;7.25;;;18.10;44.60;;;;;;5033294;28;20478;-58
2021/03/15 05:34:24;;;;;;;10.82;6.30;;;18.20;44.70;;;;;;5033392;28;20030;-58
2021/03/15 05:36:51;;;;;;;10.80;6.32;;;18.40;44.50;;;;;;5036798;28;20369;-58
2021/03/15 05:39:17;;;;;;;10.98;5.72;;;18.40;44.40;;;;;;5037143;28;20111;-58
2021/03/15 05:41:58;;;;;;;12.25;5.63;;;18.50;44.20;;;;;;5037187;28;20061;-55
2021/03/15 05:44:39;;;;;;;;;;;18.60;44.20;;;;;;5037536;28;20060;-54
2021/03/15 05:47:14;;;;;;;9.73;4.47;;;18.70;44.00;;;;;;5037173;28;19905;-58
2021/03/15 05:50:01;;;;;;;12.48;6.80;;;18.80;43.60;;;;;;5036983;28;20032;-57
2021/03/15 05:52:47;;;;;;;9.50;6.13;;;18.90;43.50;;;;;;5036863;28;20141;-58
2021/03/15 05:55:16;;;;;;;9.93;6.00;;;19.00;43.20;;;;;;5036736;28;20116;-55
2021/03/15 05:58:07;;;;;;;10.82;5.32;;;19.10;43.00;;;;;;5036775;28;20021;-59
2021/03/15 06:01:00;;;;;;;10.07;5.35;;;19.20;43.00;;;;;;5036840;28;20021;-56
2021/03/15 06:04:06;;;;;;;8.60;4.75;;;19.30;43.20;;;;;;5036780;28;20390;-55
2021/03/15 06:06:39;;;;;;;9.70;5.55;;;19.40;42.70;;;;;;4975573;28;20067;-58
2021/03/15 06:09:06;;;;;;;10.68;5.15;;;19.40;42.60;;;;;;4975706;28;20426;-58
2021/03/15 06:11:46;;;;;;;11.23;5.10;;;19.40;42.70;;;;;;5008565;28;20120;-57
2021/03/15 06:14:15;;;;;;;10.05;4.75;;;19.40;42.70;;;;;;5036559;28;20381;-54
2021/03/15 06:16:42;;;;;;;8.93;5.00;;;19.30;42.70;;;;;;5036574;28;20029;-56
2021/03/15 06:19:08;;;;;;;8.98;4.45;;;19.30;42.80;;;;;;5036358;28;20037;-54
2021/03/15 06:21:35;;;;;;;8.70;4.55;;;19.30;42.90;;;;;;5036354;28;20067;-55
2021/03/15 06:24:01;;;;;;;10.32;5.30;;;19.30;43.00;;;;;;5036574;28;20033;-53
2021/03/15 06:26:29;;;;;;;8.55;4.82;;;19.20;43.10;;;;;;5036362;28;20025;-56
2021/03/15 06:28:58;;;;;;;10.60;5.55;;;19.20;43.00;;;;;;5036018;28;20037;-55
2021/03/15 06:31:25;;;;;;;7.63;4.18;;;19.20;43.20;;;;;;5036251;28;20032;-55
2021/03/15 06:33:51;;;;;;;8.70;4.35;;;19.10;43.60;;;;;;5036263;28;20036;-55
2021/03/15 06:36:17;;;;;;;9.20;4.85;;;19.10;43.50;;;;;;5036088;28;20021;-54
2021/03/15 06:38:44;;;;;;;8.00;4.20;;;19.10;43.50;;;;;;5036057;28;20124;-55
2021/03/15 06:41:11;;;;;;;10.32;4.28;;;19.20;43.30;;;;;;5036065;28;20511;-54
2021/03/15 06:43:39;;;;;;;8.90;4.50;;;19.30;43.30;;;;;;5035740;28;20079;-55
2021/03/15 06:46:05;;;;;;;8.93;4.80;;;19.30;43.50;;;;;;5036057;28;20026;-57
2021/03/15 06:48:30;;;;;;;7.90;4.47;;;19.10;43.50;;;;;;5034836;28;20091;-58
2021/03/15 06:50:58;;;;;;;9.88;4.35;;;19.00;43.60;;;;;;5035857;28;20511;-58
2021/03/15 06:53:24;;;;;;;8.77;4.45;;;19.00;43.80;;;;;;5035618;28;20050;-58
2021/03/15 06:55:54;;;;;;;13.85;4.57;;;19.00;43.80;;;;;;5035688;28;20030;-58
2021/03/15 06:58:31;;;;;;;10.13;4.05;;;19.00;44.30;;;;;;5036138;28;20065;-61
2021/03/15 07:01:20;;;;;;;10.32;4.28;;;19.00;44.90;;;;;;5035670;28;20048;-59
2021/03/15 07:03:49;;;;;;;10.60;4.40;;;19.00;45.90;;;;;;5035568;28;20563;-58
2021/03/15 07:06:17;;;;;;;11.10;4.53;;;19.00;44.70;;;;;;5035513;28;20041;-56
2021/03/15 07:08:44;;;;;;;10.65;4.35;;;19.00;44.90;;;;;;5035537;28;20515;-56
2021/03/15 07:11:24;;;;;;;8.77;4.40;;;19.00;45.00;;;;;;5035470;28;20028;-56
2021/03/15 07:13:51;;;;;;;7.43;3.80;;;18.90;45.10;;;;;;5035423;28;20457;-56
2021/03/15 07:16:30;;;;;;;8.48;4.13;;;18.90;45.20;;;;;;5035386;28;20116;-59
2021/03/15 07:19:04;;;;;;;11.10;3.95;;;18.80;45.20;;;;;;5035170;28;20056;-59
2021/03/15 07:21:32;;;;;;;10.57;4.18;;;18.80;45.20;;;;;;5035546;28;20103;-58
2021/03/15 07:23:58;;;;;;;10.85;3.08;;;18.80;45.30;;;;;;5035344;28;20021;-59
2021/03/15 07:26:27;;;;;;;7.13;3.90;;;18.70;45.30;;;;;;5035214;28;20028;-61
2021/03/15 07:28:54;;;;;;;12.10;4.82;;;18.70;45.20;;;;;;5034972;28;20025;-59
2021/03/15 07:31:19;;;;;;;11.70;3.83;;;18.70;44.70;;;;;;5040202;28;20065;-61
2021/03/15 07:34:05;;;;;;;12.90;4.03;;;18.80;43.80;;;;;;5035379;28;20049;-65
2021/03/15 07:36:33;;;;;;;21.13;12.90;;;18.70;43.90;;;;;;5035175;28;20064;-59
2021/03/15 07:39:07;;;;;;;27.55;15.07;;;18.80;43.20;;;;;;5044688;28;20069;-56
2021/03/15 07:41:37;;;;;;;38.72;22.23;;;18.80;41.60;;;;;;5035808;28;20025;-60
2021/03/15 07:44:18;;;;;;;59.47;32.08;;;18.90;40.00;;;;;;5024483;28;20075;-62
2021/03/15 07:46:45;;;;;;;67.30;34.75;;;18.90;39.50;;;;;;5032562;28;20095;-61
2021/03/15 07:49:48;;;;;;;64.28;35.60;;;18.80;38.80;;;;;;5042596;28;20024;-61
2021/03/15 07:52:14;;;;;;;75.10;41.55;;;18.70;38.10;;;;;;5012275;28;20057;-60
2021/03/15 07:54:41;;;;;;;81.00;44.92;;;18.60;36.50;;;;;;5042163;28;20029;-61
2021/03/15 07:57:17;;;;;;;91.88;53.38;;;18.60;35.60;;;;;;5039781;28;20025;-61
2021/03/15 07:59:48;;;;;;;70.50;39.13;;;18.50;34.20;;;;;;5034141;28;20033;-61
2021/03/15 08:02:22;;;;;;;58.25;31.42;;;18.50;34.10;;;;;;5034447;28;20025;-62
2021/03/15 08:04:49;;;;;;;58.35;35.65;;;18.50;33.20;;;;;;5034545;28;20060;-62
2021/03/15 08:07:16;;;;;;;46.40;29.92;;;18.40;33.30;;;;;;5034431;28;20029;-61
2021/03/15 08:09:47;;;;;;;44.20;28.23;;;18.20;32.40;;;;;;5034637;28;20035;-60
2021/03/15 08:12:14;;;;;;;;;;;18.10;31.80;;;;;;5035144;28;20029;-60
2021/03/15 08:14:46;;;;;;;31.85;19.67;;;18.10;30.80;;;;;;5034309;28;20418;-62
2021/03/15 08:17:18;;;;;;;38.58;26.17;;;18.10;29.80;;;;;;5034301;28;20028;-59
2021/03/15 08:19:46;;;;;;;34.58;22.92;;;18.10;29.80;;;;;;5034084;28;20041;-58
2021/03/15 08:22:14;;;;;;;35.38;21.05;;;18.10;30.50;;;;;;5034447;28;20022;-67
2021/03/15 08:24:41;;;;;;;28.88;18.33;;;18.10;31.20;;;;;;5032789;28;20060;-70
2021/03/15 08:27:07;;;;;;;29.20;16.88;;;18.10;31.80;;;;;;5033997;28;20435;-61
2021/03/15 08:29:38;;;;;;;24.42;15.93;;;18.20;32.50;;;;;;5034094;28;20034;-57
2021/03/15 08:32:06;;;;;;;21.48;15.07;;;18.30;32.90;;;;;;5033947;28;20488;-57
2021/03/15 08:34:35;;;;;;;25.35;15.05;;;18.40;33.60;;;;;;5034060;28;20561;-59
2021/03/15 08:37:01;;;;;;;20.80;13.43;;;18.40;33.60;;;;;;5034135;28;20477;-57
2021/03/15 08:39:27;;;;;;;21.42;12.60;;;18.40;34.00;;;;;;5034180;28;20068;-59
2021/03/15 08:42:23;;;;;;;20.02;11.73;;;18.40;34.40;;;;;;5033942;28;20032;-58
2021/03/15 08:44:49;;;;;;;17.45;12.45;;;18.40;34.60;;;;;;5025161;28;20432;-59
2021/03/15 08:47:48;;;;;;;18.10;11.60;;;18.40;35.00;;;;;;5033816;28;20083;-58
2021/03/15 08:50:34;;;;;;;21.40;11.10;;;18.50;34.80;;;;;;5032619;28;20086;-58
2021/03/15 08:53:01;;;;;;;19.00;11.05;;;18.50;35.00;;;;;;5033233;28;20567;-58
2021/03/15 08:55:42;;;;;;;15.93;10.13;;;18.50;35.30;;;;;;5033193;28;20045;-58
2021/03/15 08:58:36;;;;;;;18.60;9.35;;;18.40;35.50;;;;;;5033367;28;20090;-58
2021/03/15 09:01:06;;;;;;;15.73;9.90;;;18.40;35.70;;;;;;5033489;28;20068;-58
2021/03/15 09:04:03;;;;;;;15.50;9.27;;;18.40;35.80;;;;;;5033364;28;20064;-58
2021/03/15 09:06:32;;;;;;;17.35;8.70;;;18.40;36.00;;;;;;5033496;28;20034;-59
2021/03/15 09:09:13;;;;;;;13.55;9.00;;;18.30;35.90;;;;;;5033659;28;20033;-59
2021/03/15 09:11:38;;;;;;;;;;;18.30;36.20;;;;;;5037101;28;20076;-59
2021/03/15 09:14:25;;;;;;;16.20;8.32;;;18.40;36.20;;;;;;5037792;28;19905;-58
2021/03/15 09:17:02;;;;;;;13.13;7.70;;;18.40;36.00;;;;;;5037829;28;20029;-58
2021/03/15 09:19:39;;;;;;;13.27;8.63;;;18.30;36.20;;;;;;5037261;28;20033;-58
2021/03/15 09:22:24;;;;;;;13.00;7.30;;;18.30;36.50;;;;;;5038064;28;20033;-57
2021/03/15 09:24:59;;;;;;;13.95;7.40;;;18.30;36.00;;;;;;5037704;28;20056;-59
2021/03/15 09:27:29;;;;;;;11.30;6.85;;;18.30;36.00;;;;;;5037413;28;20025;-58
2021/03/15 09:29:56;;;;;;;11.40;6.97;;;18.40;35.80;;;;;;5037125;28;20149;-58
2021/03/15 09:32:31;;;;;;;14.38;6.47;;;18.30;36.00;;;;;;5037102;28;20033;-58
2021/03/15 09:34:59;;;;;;;10.02;5.78;;;18.40;36.20;;;;;;5037498;28;20115;-58
2021/03/15 09:37:27;;;;;;;11.75;6.90;;;18.40;36.30;;;;;;5037048;28;20452;-59
2021/03/15 09:39:56;;;;;;;10.32;6.05;;;18.40;36.40;;;;;;5037169;28;20041;-58
2021/03/15 09:42:22;;;;;;;9.10;5.72;;;18.40;36.40;;;;;;5037045;28;20033;-58
2021/03/15 09:44:48;;;;;;;10.73;6.85;;;18.50;36.60;;;;;;5037174;28;20053;-59
2021/03/15 09:47:24;;;;;;;10.30;6.35;;;18.50;36.70;;;;;;5037085;28;20041;-58
2021/03/15 09:49:50;;;;;;;9.70;6.28;;;18.50;36.80;;;;;;5037007;28;20045;-59
2021/03/15 09:52:21;;;;;;;12.02;6.43;;;18.40;36.80;;;;;;5036738;28;20473;-59
2021/03/15 09:54:47;;;;;;;;;;;18.50;37.20;;;;;;5037277;28;20026;-58
2021/03/15 09:57:14;;;;;;;11.02;6.53;;;18.30;37.30;;;;;;5036951;28;20387;-60
2021/03/15 09:59:40;;;;;;;10.85;5.78;;;18.30;37.60;;;;;;5036975;28;20124;-59
2021/03/15 10:02:06;;;;;;;10.02;6.10;;;18.30;37.30;;;;;;5037127;28;20029;-58
2021/03/15 10:04:34;;;;;;;10.70;6.75;;;18.30;38.30;;;;;;5036743;28;20033;-59
2021/03/15 10:07:02;;;;;;;8.52;6.28;;;18.20;38.10;;;;;;5036532;28;20022;-58
2021/03/15 10:09:30;;;;;;;9.82;6.07;;;18.20;38.50;;;;;;5036624;28;20048;-59
2021/03/15 10:11:56;;;;;;;12.07;6.20;;;18.20;38.40;;;;;;5036681;28;20550;-59
2021/03/15 10:14:24;;;;;;;10.90;5.53;;;18.20;38.40;;;;;;5036606;28;20025;-58
2021/03/15 10:16:55;;;;;;;8.43;5.03;;;18.20;38.30;;;;;;5036690;28;20491;-59
2021/03/15 10:19:22;;;;;;;9.98;5.35;;;18.20;38.10;;;;;;5036346;28;20044;-59
2021/03/15 10:21:48;;;;;;;8.95;5.22;;;18.10;37.70;;;;;;5036319;28;20486;-58
2021/03/15 10:24:14;;;;;;;10.13;4.47;;;18.10;38.60;;;;;;5036483;28;20044;-58
2021/03/15 10:26:41;;;;;;;8.60;5.63;;;18.10;39.00;;;;;;5036234;28;20477;-59
2021/03/15 10:29:08;;;;;;;9.45;4.68;;;18.10;38.70;;;;;;5036322;28;20036;-58
2021/03/15 10:31:39;;;;;;;11.10;5.70;;;18.10;39.10;;;;;;5036140;28;20056;-58
2021/03/15 10:34:08;;;;;;;8.87;5.63;;;18.10;38.30;;;;;;5036361;28;20030;-58
2021/03/15 10:36:36;;;;;;;8.95;5.20;;;18.20;38.30;;;;;;5036218;28;20530;-59
2021/03/15 10:39:03;;;;;;;9.60;4.78;;;18.30;38.30;;;;;;5036063;28;20457;-58
2021/03/15 10:41:29;;;;;;;11.02;5.80;;;18.30;38.30;;;;;;5036111;28;20036;-58
2021/03/15 10:43:56;;;;;;;9.38;4.55;;;18.30;38.30;;;;;;5035901;28;20029;-58
2021/03/15 10:46:24;;;;;;;8.98;5.35;;;18.40;38.40;;;;;;5035879;28;20156;-58
2021/03/15 10:48:50;;;;;;;9.27;4.63;;;18.30;38.50;;;;;;5035829;28;20052;-58
2021/03/15 10:51:16;;;;;;;10.77;4.95;;;18.30;38.30;;;;;;5035934;28;20033;-59
2021/03/15 10:53:51;;;;;;;6.72;4.13;;;18.30;37.80;;;;;;5036115;28;20157;-59
2021/03/15 10:56:23;;;;;;;7.45;4.43;;;18.30;38.30;;;;;;5036013;28;20033;-59
2021/03/15 10:58:49;;;;;;;6.88;3.63;;;18.20;38.10;;;;;;5035603;28;20381;-58
2021/03/15 11:01:23;;;;;;;7.43;4.18;;;18.20;38.10;;;;;;5035631;28;20496;-58
2021/03/15 11:03:49;;;;;;;9.25;4.60;;;18.20;38.50;;;;;;5035709;28;20033;-59
2021/03/15 11:06:22;;;;;;;7.50;4.18;;;18.10;38.70;;;;;;5035749;28;20025;-58
2021/03/15 11:08:55;;;;;;;6.93;4.43;;;18.10;39.00;;;;;;5035761;28;20029;-59
2021/03/15 11:11:23;;;;;;;6.93;4.50;;;18.00;39.70;;;;;;5035719;28;20021;-59
2021/03/15 11:13:51;;;;;;;6.00;3.67;;;18.00;39.80;;;;;;5035416;28;20572;-59
2021/03/15 11:16:18;;;;;;;7.18;4.03;;;18.00;39.50;;;;;;5035467;28;20108;-58
2021/03/15 11:18:43;;;;;;;8.63;4.60;;;18.00;40.30;;;;;;5035112;28;20461;-59
2021/03/15 11:21:12;;;;;;;6.93;3.95;;;18.00;39.80;;;;;;5035194;28;20037;-59
2021/03/15 11:23:40;;;;;;;6.07;3.60;;;18.00;39.60;;;;;;5035193;28;20029;-58
2021/03/15 11:26:14;;;;;;;6.60;3.45;;;17.90;40.20;;;;;;5035263;28;20405;-59
2021/03/15 11:28:43;;;;;;;8.00;3.83;;;17.90;39.80;;;;;;5035238;28;20033;-59
2021/03/15 11:31:20;;;;;;;7.18;3.88;;;17.90;40.60;;;;;;5035387;28;20032;-58
2021/03/15 11:34:00;;;;;;;8.23;3.80;;;17.90;40.40;;;;;;5034541;28;20091;-59
2021/03/15 11:36:28;;;;;;;7.90;3.88;;;17.90;39.80;;;;;;5035019;28;20060;-58
2021/03/15 11:39:01;;;;;;;6.57;4.15;;;18.00;39.50;;;;;;5034898;28;20499;-59
2021/03/15 11:41:29;;;;;;;6.57;3.45;;;18.00;39.70;;;;;;5035064;28;20116;-59
2021/03/15 11:43:55;;;;;;;7.20;3.47;;;18.10;39.60;;;;;;5034966;28;20083;-59
2021/03/15 11:46:21;;;;;;;6.85;3.50;;;18.10;39.70;;;;;;5034772;28;20457;-60
2021/03/15 11:48:47;;;;;;;5.35;3.80;;;18.10;39.70;;;;;;5034900;28;20100;-59
2021/03/15 11:51:17;;;;;;;7.75;3.63;;;18.10;39.90;;;;;;5034731;28;20057;-58
2021/03/15 11:53:43;;;;;;;6.78;4.15;;;18.00;39.40;;;;;;5034233;28;20049;-58
2021/03/15 11:56:09;;;;;;;7.07;3.95;;;18.00;39.70;;;;;;5035206;28;20079;-59
2021/03/15 11:58:35;;;;;;;6.07;3.90;;;18.00;39.90;;;;;;5034598;28;20104;-58
2021/03/15 12:01:02;;;;;;;5.80;3.33;;;17.90;40.00;;;;;;5034570;28;20465;-59
2021/03/15 12:03:27;;;;;;;6.93;4.20;;;17.90;40.10;;;;;;5034552;28;20056;-59
2021/03/15 12:05:53;;;;;;;5.90;3.25;;;17.80;40.30;;;;;;5034386;28;20029;-60
2021/03/15 12:08:19;;;;;;;6.25;3.70;;;17.90;40.70;;;;;;5034423;28;20029;-58
2021/03/15 12:10:44;;;;;;;6.50;3.20;;;17.80;40.70;;;;;;5034458;28;20104;-59
2021/03/15 12:13:10;;;;;;;6.90;3.58;;;17.80;40.90;;;;;;5034390;28;20528;-58
2021/03/15 12:15:37;;;;;;;5.55;3.22;;;17.70;41.10;;;;;;5034357;28;20069;-59
2021/03/15 12:18:04;;;;;;;8.55;3.63;;;17.70;41.20;;;;;;5034216;28;20033;-58
2021/03/15 12:20:30;;;;;;;5.72;3.45;;;17.70;41.50;;;;;;5034183;28;20033;-58
2021/03/15 12:22:56;;;;;;;6.72;4.07;;;17.70;41.70;;;;;;5034014;28;20052;-58
2021/03/15 12:25:22;;;;;;;6.78;3.55;;;17.60;41.60;;;;;;5033323;28;20029;-59
2021/03/15 12:27:47;;;;;;;11.32;3.33;;;17.60;42.40;;;;;;5033683;28;20034;-61
2021/03/15 12:30:15;;;;;;;11.73;3.30;;;17.60;41.40;;;;;;5033802;28;20489;-61
2021/03/15 12:32:40;;;;;;;12.65;3.40;;;17.70;42.60;;;;;;5044320;28;20024;-64
2021/03/15 12:35:06;;;;;;;49.70;24.42;;;17.60;43.60;;;;;;5042476;28;20025;-64
2021/03/15 12:37:32;;;;;;;57.83;32.90;;;17.70;44.00;;;;;;5043448;28;20032;-62
2021/03/15 12:39:58;;;;;;;120.05;64.68;;;17.80;42.50;;;;;;5041503;28;20068;-61
2021/03/15 12:42:24;;;;;;;95.88;54.22;;;17.80;42.20;;;;;;5042731;28;20159;-61
2021/03/15 12:44:49;;;;;;;101.32;56.28;;;17.90;43.20;;;;;;5042110;28;20025;-62
2021/03/15 12:47:15;;;;;;;76.47;44.88;;;17.90;41.60;;;;;;5041204;28;20432;-63
2021/03/15 12:49:41;;;;;;;68.85;40.55;;;18.00;42.70;;;;;;5043201;28;20025;-63